Time;durP1;ratioP1;P1;durP2;ratioP2;P2;SDS_P1;SDS_P2;PMS_P1;PMS_P2;Temp;Humidity;BMP_temperature;BMP_pressure;BME280_temperature;BME280_humidity;BME280_pressure;Samples;Min_cycle;Max_cycle;Signal;HPM_P1;HPM_P2
2022/07/04 00:00:26;;;;;;;15.33;10.23;;;19.00;99.90;;;;;;4974958;28;20198;-69
2022/07/04 00:02:53;;;;;;;13.60;9.43;;;18.90;99.90;;;;;;4974925;28;20214;-69
2022/07/04 00:05:21;;;;;;;20.70;10.07;;;18.80;99.90;;;;;;4957626;28;20647;-69
2022/07/04 00:07:49;;;;;;;17.10;9.50;;;18.80;99.90;;;;;;4974449;28;20557;-69
2022/07/04 00:10:21;;;;;;;11.67;9.30;;;18.80;99.90;;;;;;4975094;28;20204;-68
2022/07/04 00:12:48;;;;;;;12.93;9.50;;;18.80;99.90;;;;;;4957311;28;20212;-68
2022/07/04 00:15:16;;;;;;;11.73;8.80;;;18.80;99.90;;;;;;4975209;28;20246;-70
2022/07/04 00:17:43;;;;;;;12.37;9.80;;;18.70;99.90;;;;;;4957548;28;20209;-69
2022/07/04 00:20:10;;;;;;;11.10;9.20;;;18.70;99.90;;;;;;4975119;28;20281;-69
2022/07/04 00:22:38;;;;;;;13.80;9.23;;;18.60;99.90;;;;;;4974694;28;20277;-70
2022/07/04 00:25:06;;;;;;;13.93;9.40;;;18.60;99.90;;;;;;4957429;28;20244;-68
2022/07/04 00:27:33;;;;;;;11.53;8.57;;;18.50;99.90;;;;;;4957296;28;20627;-71
2022/07/04 00:30:00;;;;;;;21.17;9.20;;;18.60;99.90;;;;;;4957318;28;20208;-69
2022/07/04 00:32:27;;;;;;;10.97;9.13;;;18.60;99.90;;;;;;4974711;28;20543;-69
2022/07/04 00:34:54;;;;;;;12.23;9.20;;;18.60;99.90;;;;;;4957804;28;20280;-69
2022/07/04 00:37:21;;;;;;;12.63;8.83;;;18.60;99.90;;;;;;4941459;28;20678;-69
2022/07/04 00:39:48;;;;;;;11.80;9.37;;;18.50;99.90;;;;;;4957592;28;20320;-69
2022/07/04 00:42:15;;;;;;;12.43;9.80;;;18.50;99.90;;;;;;4957206;28;20205;-71
2022/07/04 00:44:41;;;;;;;13.63;9.23;;;18.50;99.90;;;;;;4957115;28;20221;-70
2022/07/04 00:47:09;;;;;;;10.00;8.50;;;18.50;99.90;;;;;;4956965;28;20313;-68
2022/07/04 00:49:36;;;;;;;12.47;8.90;;;18.50;99.90;;;;;;4974391;28;20252;-70
2022/07/04 00:52:04;;;;;;;12.53;9.13;;;18.50;99.90;;;;;;4956960;28;20201;-69
2022/07/04 00:54:32;;;;;;;11.53;9.17;;;18.40;99.90;;;;;;4957083;28;20229;-69
2022/07/04 00:57:01;;;;;;;13.27;9.10;;;18.40;99.90;;;;;;4941008;28;20686;-68
2022/07/04 00:59:28;;;;;;;12.40;9.37;;;18.40;99.90;;;;;;4957183;28;20647;-75
2022/07/04 01:01:56;;;;;;;31.97;10.73;;;18.40;99.90;;;;;;4974187;28;20273;-77
2022/07/04 01:04:24;;;;;;;13.10;9.10;;;18.30;99.90;;;;;;4973190;28;20227;-76
2022/07/04 01:06:53;;;;;;;15.23;8.90;;;18.40;99.90;;;;;;4957407;28;20635;-76
2022/07/04 01:09:20;;;;;;;13.67;9.70;;;18.40;99.90;;;;;;4956883;28;20197;-71
2022/07/04 01:11:50;;;;;;;12.07;9.47;;;18.30;99.90;;;;;;4956623;28;20285;-71
2022/07/04 01:14:18;;;;;;;12.03;8.80;;;18.30;99.90;;;;;;4974185;28;20649;-71
2022/07/04 01:16:45;;;;;;;14.33;9.17;;;18.20;99.90;;;;;;4974120;28;20286;-70
2022/07/04 01:19:12;;;;;;;11.97;9.30;;;18.20;99.90;;;;;;4956732;28;20296;-71
2022/07/04 01:21:39;;;;;;;11.13;9.20;;;18.30;99.90;;;;;;4960160;28;20205;-73
2022/07/04 01:24:06;;;;;;;12.30;8.90;;;18.20;99.90;;;;;;4978093;28;20228;-70
2022/07/04 01:26:33;;;;;;;15.60;9.77;;;18.20;99.90;;;;;;4977842;28;20189;-73
2022/07/04 01:29:00;;;;;;;14.17;9.33;;;18.10;99.90;;;;;;4977965;28;20647;-70
2022/07/04 01:31:27;;;;;;;11.90;9.70;;;18.10;99.90;;;;;;4978186;28;20276;-72
2022/07/04 01:33:54;;;;;;;12.50;9.10;;;18.10;99.90;;;;;;4960736;28;20665;-70
2022/07/04 01:36:21;;;;;;;14.17;9.23;;;18.10;99.90;;;;;;4960698;28;20208;-68
2022/07/04 01:38:48;;;;;;;14.97;9.60;;;18.00;99.90;;;;;;4960726;28;20300;-70
2022/07/04 01:41:14;;;;;;;14.83;9.50;;;18.00;99.90;;;;;;4977549;28;20280;-70
2022/07/04 01:43:41;;;;;;;13.07;9.33;;;18.00;99.90;;;;;;4977722;28;20225;-71
2022/07/04 01:46:08;;;;;;;11.73;8.97;;;18.00;99.90;;;;;;4960502;28;20296;-71
2022/07/04 01:48:35;;;;;;;12.63;9.03;;;17.90;99.90;;;;;;4977502;28;20244;-72
2022/07/04 01:51:02;;;;;;;12.30;9.53;;;17.90;99.90;;;;;;4960199;28;20203;-69
2022/07/04 01:53:29;;;;;;;12.53;9.17;;;17.90;99.90;;;;;;4977835;28;20189;-69
2022/07/04 01:55:56;;;;;;;12.87;9.27;;;17.80;99.90;;;;;;4960512;28;20205;-70
2022/07/04 01:58:23;;;;;;;11.63;9.33;;;17.80;99.90;;;;;;4960596;28;20193;-71
2022/07/04 02:03:36;;;;;;;20.90;10.70;;;17.70;99.90;;;;;;4977132;28;20217;-70
2022/07/04 02:06:03;;;;;;;13.40;10.13;;;17.60;99.90;;;;;;4960377;28;20268;-72
2022/07/04 02:09:14;;;;;;;14.03;10.73;;;17.60;99.90;;;;;;4960131;28;20216;-69
2022/07/04 02:11:17;;;;;;;14.00;10.47;;;17.60;99.90;;;;;;4959882;28;20572;-68
2022/07/04 02:13:44;;;;;;;15.03;10.80;;;17.60;99.90;;;;;;4976981;28;20599;-69
2022/07/04 02:16:11;;;;;;;14.37;11.10;;;17.50;99.90;;;;;;4976062;28;20211;-69
2022/07/04 02:18:38;;;;;;;14.27;11.33;;;17.50;99.90;;;;;;4976108;28;20229;-70
2022/07/04 02:21:04;;;;;;;17.23;11.37;;;17.50;99.90;;;;;;4975591;28;20198;-69
2022/07/04 02:23:31;;;;;;;16.67;11.00;;;17.50;99.90;;;;;;4975927;28;20226;-69
2022/07/04 02:25:58;;;;;;;14.87;11.33;;;17.50;99.90;;;;;;4977374;28;20624;-69
2022/07/04 02:28:25;;;;;;;15.57;11.53;;;17.40;99.90;;;;;;4977160;28;20196;-69
2022/07/04 02:30:52;;;;;;;16.10;11.07;;;17.40;99.90;;;;;;4958975;28;20194;-69
2022/07/04 02:33:19;;;;;;;14.17;11.60;;;17.40;99.90;;;;;;4959489;28;20208;-73
2022/07/04 02:35:46;;;;;;;14.67;11.63;;;17.30;99.90;;;;;;4976682;28;20217;-70
2022/07/04 02:38:12;;;;;;;18.30;12.70;;;17.30;99.90;;;;;;4959428;28;20273;-69
2022/07/04 02:40:39;;;;;;;20.00;12.47;;;17.30;99.90;;;;;;4975709;28;20292;-71
2022/07/04 02:43:06;;;;;;;17.30;13.07;;;17.30;99.90;;;;;;4975819;28;20644;-69
2022/07/04 02:45:33;;;;;;;18.90;14.17;;;17.30;99.90;;;;;;4975470;28;20222;-74
2022/07/04 02:48:00;;;;;;;17.13;13.23;;;17.40;99.90;;;;;;4975224;28;20308;-74
2022/07/04 02:50:27;;;;;;;21.43;13.20;;;17.40;99.90;;;;;;4959136;28;20241;-69
2022/07/04 02:52:54;;;;;;;17.87;13.87;;;17.30;99.90;;;;;;4976588;28;20195;-70
2022/07/04 02:55:21;;;;;;;18.80;14.63;;;17.40;99.90;;;;;;4975468;28;20285;-74
2022/07/04 02:57:47;;;;;;;19.57;14.70;;;17.40;99.90;;;;;;4975104;28;20194;-70
2022/07/04 03:00:14;;;;;;;19.57;14.67;;;17.50;99.90;;;;;;4975044;28;20651;-70
2022/07/04 03:02:41;;;;;;;21.50;15.37;;;17.50;99.90;;;;;;4975084;28;20198;-70
2022/07/04 03:05:08;;;;;;;27.30;15.07;;;17.50;99.90;;;;;;4976384;28;20235;-70
2022/07/04 03:07:35;;;;;;;21.37;15.10;;;17.50;99.90;;;;;;4975138;28;20202;-71
2022/07/04 03:10:02;;;;;;;22.17;15.20;;;17.50;99.90;;;;;;4958901;28;20680;-70
2022/07/04 03:12:29;;;;;;;20.30;14.73;;;17.60;99.90;;;;;;4975028;28;20208;-72
2022/07/04 03:14:58;;;;;;;19.90;14.83;;;17.60;99.90;;;;;;4958698;28;20324;-73
2022/07/04 03:17:26;;;;;;;20.47;14.83;;;17.60;99.90;;;;;;4976430;28;20248;-71
2022/07/04 03:19:53;;;;;;;18.77;14.17;;;17.60;99.90;;;;;;4974595;28;20305;-73
2022/07/04 03:22:19;;;;;;;18.90;14.30;;;17.70;99.90;;;;;;4958404;28;20198;-71
2022/07/04 03:24:46;;;;;;;21.00;15.13;;;17.70;99.90;;;;;;4975992;28;20633;-73
2022/07/04 03:27:14;;;;;;;20.63;15.67;;;17.70;99.90;;;;;;4958642;28;20186;-73
2022/07/04 03:29:41;;;;;;;18.83;14.60;;;17.70;99.90;;;;;;4958495;28;20194;-71
2022/07/04 03:32:08;;;;;;;19.83;15.23;;;17.70;99.90;;;;;;4975677;28;20608;-73
2022/07/04 03:34:35;;;;;;;21.33;14.53;;;17.80;99.90;;;;;;4974643;28;20216;-74
2022/07/04 03:37:02;;;;;;;20.67;14.63;;;17.80;99.90;;;;;;4958178;28;20225;-72
2022/07/04 03:39:29;;;;;;;20.00;13.70;;;17.90;99.90;;;;;;4958240;28;20206;-73
2022/07/04 03:41:56;;;;;;;20.17;13.80;;;17.90;99.90;;;;;;4957983;28;20193;-74
2022/07/04 03:44:23;;;;;;;21.87;13.40;;;18.10;99.90;;;;;;4957553;28;20229;-74
2022/07/04 03:46:49;;;;;;;18.97;12.97;;;18.10;99.90;;;;;;4958127;28;20281;-74
2022/07/04 03:49:16;;;;;;;16.23;12.50;;;18.20;99.90;;;;;;4973908;28;20304;-73
2022/07/04 03:51:43;;;;;;;17.73;13.13;;;18.30;99.90;;;;;;4974049;28;20700;-72
2022/07/04 03:54:10;;;;;;;16.10;12.17;;;18.30;99.90;;;;;;4974396;28;20198;-73
2022/07/04 03:56:43;;;;;;;15.03;11.60;;;18.40;99.90;;;;;;4958174;28;20206;-73
2022/07/04 03:59:10;;;;;;;14.93;11.20;;;18.50;99.90;;;;;;4973875;28;20280;-74
2022/07/04 04:01:37;;;;;;;16.33;11.10;;;18.50;99.90;;;;;;4957603;28;20288;-72
2022/07/04 04:06:49;;;;;;;12.80;10.43;;;18.60;99.90;;;;;;4957312;28;20288;-72
2022/07/04 04:09:18;;;;;;;12.27;10.50;;;18.70;99.90;;;;;;4957561;28;20223;-73
2022/07/04 04:11:45;;;;;;;15.00;11.30;;;18.70;99.90;;;;;;4973688;28;20298;-73
2022/07/04 04:14:12;;;;;;;12.37;9.77;;;18.80;99.90;;;;;;4974977;28;20256;-72
2022/07/04 04:16:41;;;;;;;15.43;11.23;;;18.90;99.90;;;;;;4974549;28;20193;-73
2022/07/04 04:19:09;;;;;;;15.37;10.60;;;19.10;99.90;;;;;;4974894;28;20663;-72
2022/07/04 04:21:36;;;;;;;13.80;10.73;;;19.10;99.90;;;;;;4974649;28;20622;-73
2022/07/04 04:24:03;;;;;;;13.23;10.83;;;19.10;99.90;;;;;;4973567;28;20217;-74
2022/07/04 04:26:30;;;;;;;13.63;10.53;;;19.10;99.90;;;;;;4957621;28;20210;-75
2022/07/04 04:28:57;;;;;;;14.30;10.63;;;19.10;99.90;;;;;;4957533;28;20201;-76
2022/07/04 04:31:24;;;;;;;13.10;10.40;;;19.10;99.90;;;;;;4957101;28;20201;-74
2022/07/04 04:33:51;;;;;;;12.60;10.27;;;19.30;99.90;;;;;;4957352;28;20660;-75
2022/07/04 04:36:18;;;;;;;12.67;9.97;;;19.30;99.90;;;;;;4973279;28;20201;-75
2022/07/04 04:38:45;;;;;;;13.10;9.43;;;19.40;99.90;;;;;;4957505;28;20284;-75
2022/07/04 04:41:12;;;;;;;10.60;8.90;;;19.50;99.90;;;;;;4957686;28;20228;-77
2022/07/04 04:43:39;;;;;;;12.83;10.17;;;19.60;99.90;;;;;;4957243;28;20221;-75
2022/07/04 04:46:08;;;;;;;12.33;9.87;;;19.70;99.90;;;;;;4957287;28;20683;-75
2022/07/04 04:48:35;;;;;;;14.27;10.67;;;19.70;99.90;;;;;;4974417;28;20711;-71
2022/07/04 04:51:02;;;;;;;13.00;10.27;;;19.70;99.90;;;;;;4957174;28;20233;-70
2022/07/04 04:53:35;;;;;;;14.20;9.83;;;19.80;99.90;;;;;;4973164;28;20268;-70
2022/07/04 04:56:02;;;;;;;12.97;10.10;;;19.80;99.90;;;;;;4974288;28;20193;-70
2022/07/04 04:58:28;;;;;;;12.27;9.67;;;19.90;99.90;;;;;;4974416;28;20186;-70
2022/07/04 05:00:55;;;;;;;12.07;9.50;;;20.00;99.90;;;;;;4974127;28;20224;-70
2022/07/04 05:03:42;;;;;;;24.77;10.17;;;20.00;99.90;;;;;;4956907;28;20193;-70
2022/07/04 05:06:09;;;;;;;13.73;9.73;;;20.20;99.90;;;;;;4974392;28;20674;-70
2022/07/04 05:08:36;;;;;;;14.87;9.23;;;20.20;99.90;;;;;;4956871;28;20272;-70
2022/07/04 05:11:07;;;;;;;10.73;9.00;;;20.40;99.90;;;;;;4956858;28;20670;-70
2022/07/04 05:13:38;;;;;;;12.53;9.17;;;20.40;99.90;;;;;;4956693;28;20235;-70
2022/07/04 05:16:05;;;;;;;13.70;9.30;;;20.50;99.90;;;;;;4956905;28;20815;-72
2022/07/04 05:18:32;;;;;;;14.10;8.80;;;20.50;99.90;;;;;;4956842;28;20285;-71
2022/07/04 05:20:59;;;;;;;12.90;8.67;;;20.60;99.90;;;;;;4973972;28;20288;-72
2022/07/04 05:23:26;;;;;;;12.27;8.97;;;20.60;99.90;;;;;;4974374;28;20689;-70
2022/07/04 05:25:53;;;;;;;11.33;8.70;;;20.70;99.90;;;;;;4956703;28;20319;-73
2022/07/04 05:28:20;;;;;;;10.93;8.60;;;20.80;99.90;;;;;;4956772;28;20581;-71
2022/07/04 05:30:48;;;;;;;10.53;8.67;;;20.80;99.90;;;;;;4957099;28;20201;-70
2022/07/04 05:33:16;;;;;;;11.93;8.57;;;20.90;99.90;;;;;;4956615;28;20202;-72
2022/07/04 05:35:43;;;;;;;10.77;8.10;;;20.90;99.90;;;;;;4956720;28;20284;-73
2022/07/04 05:38:10;;;;;;;9.17;7.57;;;21.00;99.90;;;;;;4974350;28;20280;-72
2022/07/04 05:40:37;;;;;;;9.93;7.70;;;21.00;99.90;;;;;;4956441;28;20642;-73
2022/07/04 05:43:04;;;;;;;10.23;7.43;;;21.00;99.90;;;;;;4956990;28;20643;-71
2022/07/04 05:45:31;;;;;;;10.37;7.80;;;21.10;99.90;;;;;;4956655;28;20559;-72
2022/07/04 05:47:58;;;;;;;9.17;7.63;;;21.10;99.90;;;;;;4956777;28;20225;-72
2022/07/04 05:50:24;;;;;;;10.67;7.37;;;21.10;99.90;;;;;;4956572;28;20208;-73
2022/07/04 05:52:58;;;;;;;9.60;7.73;;;21.00;99.90;;;;;;4956523;28;20241;-73
2022/07/04 05:55:25;;;;;;;9.73;7.73;;;21.10;99.90;;;;;;4956269;28;20223;-72
2022/07/04 05:57:53;;;;;;;12.50;8.30;;;21.20;99.90;;;;;;4956518;28;20210;-72
2022/07/04 06:00:20;;;;;;;10.40;8.10;;;21.30;99.90;;;;;;4956689;28;20194;-74
2022/07/04 06:02:47;;;;;;;11.97;8.97;;;21.40;99.90;;;;;;4973724;28;20236;-71
2022/07/04 06:05:15;;;;;;;13.63;8.73;;;21.40;99.90;;;;;;4956618;28;20253;-74
2022/07/04 06:07:42;;;;;;;11.43;8.73;;;21.50;99.90;;;;;;4959476;28;20202;-74
2022/07/04 06:10:09;;;;;;;13.57;8.83;;;21.50;99.90;;;;;;4977249;28;20280;-75
2022/07/04 06:12:36;;;;;;;14.47;8.83;;;21.60;99.90;;;;;;4977240;28;20197;-75
2022/07/04 06:15:05;;;;;;;12.53;8.53;;;21.80;99.90;;;;;;4977053;28;20313;-74
2022/07/04 06:17:32;;;;;;;11.07;7.80;;;21.90;99.90;;;;;;4960065;28;20206;-70
2022/07/04 06:20:02;;;;;;;9.20;6.50;;;21.90;99.90;;;;;;4960208;28;20248;-71
2022/07/04 06:22:46;;;;;;;10.90;8.10;;;22.00;99.90;;;;;;4959741;28;20193;-74
2022/07/04 06:25:14;;;;;;;10.07;7.50;;;21.90;99.90;;;;;;4959799;28;20303;-74
2022/07/04 06:27:43;;;;;;;10.23;7.67;;;22.10;99.90;;;;;;4959613;28;20610;-72
2022/07/04 06:30:11;;;;;;;11.00;7.00;;;22.20;99.90;;;;;;4959576;28;20691;-74
2022/07/04 06:32:46;;;;;;;15.37;6.63;;;22.30;99.90;;;;;;4959362;28;20194;-74
2022/07/04 06:38:04;;;;;;;15.67;6.70;;;22.30;99.90;;;;;;4959576;28;20198;-73
2022/07/04 06:40:31;;;;;;;10.07;6.27;;;22.30;99.90;;;;;;4959489;28;20225;-71
2022/07/04 06:42:58;;;;;;;8.33;5.57;;;22.30;99.90;;;;;;4959213;28;20630;-71
2022/07/04 06:45:25;;;;;;;9.87;5.93;;;22.40;99.90;;;;;;4976814;28;20202;-71
2022/07/04 06:47:52;;;;;;;29.53;7.87;;;22.40;99.90;;;;;;4959058;28;20217;-71
2022/07/04 06:50:19;;;;;;;8.17;5.40;;;22.50;99.90;;;;;;4959485;28;20201;-73
2022/07/04 06:53:07;;;;;;;6.73;4.70;;;22.60;99.90;;;;;;4976657;28;20198;-71
2022/07/04 06:55:34;;;;;;;7.60;5.00;;;22.80;99.90;;;;;;4959052;28;20655;-73
2022/07/04 06:58:01;;;;;;;8.32;5.35;;;23.00;99.90;;;;;;4959365;28;20198;-71
2022/07/04 07:00:31;;;;;;;5.30;4.75;;;23.10;99.90;;;;;;4958726;28;20211;-71
2022/07/04 07:03:00;;;;;;;5.90;5.13;;;23.10;99.90;;;;;;4976263;28;20193;-71
2022/07/04 07:05:28;;;;;;;8.50;4.93;;;23.10;99.90;;;;;;4976133;28;20307;-73
2022/07/04 07:08:15;;;;;;;7.07;5.10;;;23.00;99.90;;;;;;4958883;28;20200;-75
2022/07/04 07:10:42;;;;;;;6.53;4.93;;;23.10;99.90;;;;;;4958856;28;20307;-74
2022/07/04 07:13:10;;;;;;;9.15;4.95;;;23.10;99.90;;;;;;4958544;28;20629;-72
2022/07/04 07:15:37;;;;;;;7.13;4.93;;;23.20;99.90;;;;;;4958987;28;20305;-72
2022/07/04 07:18:04;;;;;;;5.60;4.70;;;23.40;99.90;;;;;;4958620;28;20599;-70
2022/07/04 07:20:32;;;;;;;8.63;5.57;;;23.40;99.90;;;;;;4976008;28;20647;-71
2022/07/04 07:23:01;;;;;;;7.17;5.23;;;23.40;99.90;;;;;;4976041;28;20228;-70
2022/07/04 07:25:29;;;;;;;6.63;5.00;;;23.20;99.90;;;;;;4958531;28;20221;-70
2022/07/04 07:27:57;;;;;;;6.20;5.17;;;23.20;99.90;;;;;;4942451;28;20228;-70
2022/07/04 07:30:24;;;;;;;7.83;5.90;;;23.20;99.90;;;;;;4958266;28;20202;-72
2022/07/04 07:32:51;;;;;;;11.10;6.67;;;23.30;99.90;;;;;;4958309;28;20244;-70
2022/07/04 07:35:18;;;;;;;8.57;5.90;;;23.30;99.90;;;;;;4958648;28;20305;-72
2022/07/04 07:37:45;;;;;;;8.47;5.50;;;23.40;99.90;;;;;;4958500;28;20205;-74
2022/07/04 07:40:12;;;;;;;7.10;4.80;;;23.60;99.90;;;;;;4958156;28;20611;-72
2022/07/04 07:42:42;;;;;;;9.40;5.23;;;23.70;99.90;;;;;;4957958;28;20212;-73
2022/07/04 07:45:10;;;;;;;10.30;4.75;;;23.80;99.90;;;;;;4975476;28;20213;-71
2022/07/04 07:47:37;;;;;;;7.50;5.75;;;23.80;99.90;;;;;;4957910;28;20284;-72
2022/07/04 07:50:05;;;;;;;7.32;5.18;;;23.90;99.90;;;;;;4975433;28;20193;-71
2022/07/04 07:52:32;;;;;;;5.80;5.10;;;24.00;99.90;;;;;;4957781;28;20292;-75
2022/07/04 07:54:59;;;;;;;5.00;4.50;;;24.00;99.90;;;;;;4958320;28;20665;-72
2022/07/04 07:57:31;;;;;;;6.45;4.93;;;24.30;99.90;;;;;;4957657;28;20292;-73
2022/07/04 07:59:59;;;;;;;6.20;4.77;;;24.40;99.90;;;;;;4942368;28;20676;-72
2022/07/04 08:05:12;;;;;;;4.63;4.00;;;24.50;99.90;;;;;;4957845;28;20213;-71
2022/07/04 08:07:39;;;;;;;7.57;4.50;;;24.50;99.90;;;;;;4957690;28;20198;-71
2022/07/04 08:10:07;;;;;;;6.75;4.28;;;24.50;99.90;;;;;;4957991;28;20209;-75
2022/07/04 08:12:35;;;;;;;9.05;3.90;;;24.70;99.90;;;;;;4957591;28;20272;-71
2022/07/04 08:15:05;;;;;;;14.50;5.20;;;25.00;99.90;;;;;;4974910;28;20265;-71
2022/07/04 08:17:35;;;;;;;6.72;4.30;;;25.20;99.90;;;;;;4957726;28;20245;-71
2022/07/04 08:20:06;;;;;;;6.07;4.20;;;25.10;99.90;;;;;;4957768;28;20244;-72
2022/07/04 08:22:34;;;;;;;5.93;4.13;;;25.20;99.90;;;;;;4957206;28;20296;-72
2022/07/04 08:25:01;;;;;;;4.07;3.50;;;25.30;99.90;;;;;;4957371;28;20202;-73
2022/07/04 08:27:28;;;;;;;4.82;3.28;;;25.30;99.90;;;;;;4957618;28;20211;-73
2022/07/04 08:29:59;;;;;;;4.63;3.20;;;25.30;99.90;;;;;;4956698;28;20296;-74
2022/07/04 08:32:27;;;;;;;6.70;3.10;;;25.40;99.90;;;;;;4974560;28;20547;-75
2022/07/04 08:34:57;;;;;;;3.83;3.38;;;25.60;99.90;;;;;;4957599;28;20248;-76
2022/07/04 08:37:24;;;;;;;4.47;3.00;;;26.70;99.90;;;;;;4974314;28;20240;-71
2022/07/04 08:39:52;;;;;;;3.65;3.15;;;27.00;99.90;;;;;;4957419;28;20237;-71
2022/07/04 08:42:21;;;;;;;3.63;2.80;;;27.80;99.90;;;;;;4974832;28;20189;-70
2022/07/04 08:44:51;;;;;;;3.53;2.75;;;28.50;99.90;;;;;;4957276;28;20240;-70
2022/07/04 08:47:20;;;;;;;2.95;2.65;;;29.30;99.90;;;;;;4957187;28;20264;-71
2022/07/04 08:50:03;;;;;;;4.25;2.65;;;29.80;99.90;;;;;;4957152;28;20236;-71
2022/07/04 08:52:39;;;;;;;4.15;3.17;;;30.30;99.90;;;;;;4956881;28;20228;-73
2022/07/04 09:00:42;;;;;;;5.72;3.55;;;30.20;99.90;;;;;;4957301;28;20635;-70
2022/07/04 09:03:10;;;;;;;5.05;2.95;;;29.00;99.90;;;;;;4956978;28;20556;-71
2022/07/04 09:05:37;;;;;;;3.47;3.17;;;28.80;99.90;;;;;;4957047;28;20332;-73
2022/07/04 09:08:04;;;;;;;6.75;3.00;;;28.30;99.90;;;;;;4957137;28;20229;-72
2022/07/04 09:10:35;;;;;;;3.45;3.13;;;27.90;99.90;;;;;;4957300;28;20205;-70
2022/07/04 09:13:05;;;;;;;4.63;3.00;;;27.80;99.90;;;;;;4940857;28;20198;-70
2022/07/04 09:15:39;;;;;;;5.82;3.63;;;27.70;99.90;;;;;;4957207;28;20216;-70
2022/07/04 09:18:06;;;;;;;3.95;3.22;;;27.50;99.90;;;;;;4974359;28;20229;-69
2022/07/04 09:20:33;;;;;;;3.50;3.05;;;27.30;99.90;;;;;;4957023;28;20292;-72
2022/07/04 09:23:20;;;;;;;5.45;3.30;;;27.10;99.90;;;;;;4956667;28;20198;-74
2022/07/04 09:25:51;;;;;;;4.82;2.90;;;27.20;99.90;;;;;;4974360;28;20221;-75
2022/07/04 09:28:28;;;;;;;4.95;2.90;;;28.00;99.90;;;;;;4940998;28;20264;-76
2022/07/04 09:30:55;;;;;;;4.80;2.95;;;28.10;99.90;;;;;;4956671;28;20267;-71
2022/07/04 09:33:42;;;;;;;11.07;3.75;;;28.10;99.90;;;;;;4956934;28;20289;-73
2022/07/04 09:36:17;;;;;;;5.47;3.30;;;27.60;99.90;;;;;;4956590;28;20673;-71
2022/07/04 09:38:45;;;;;;;3.13;2.50;;;27.40;99.90;;;;;;4956832;28;20239;-74
2022/07/04 09:41:34;;;;;;;4.95;2.95;;;27.50;97.70;;;;;;4957321;28;20224;-71
2022/07/04 09:44:05;;;;;;;4.47;2.92;;;27.60;98.10;;;;;;4960704;28;20207;-74
2022/07/04 09:46:33;;;;;;;6.35;3.22;;;28.50;99.60;;;;;;4960227;28;20225;-75
2022/07/04 09:49:01;;;;;;;3.50;3.00;;;29.10;96.90;;;;;;4977890;28;20213;-77
2022/07/04 09:51:43;;;;;;;6.10;2.85;;;29.00;96.60;;;;;;4960368;28;20248;-71
2022/07/04 09:54:16;;;;;;;3.58;2.50;;;29.40;97.30;;;;;;4977918;28;20322;-73
2022/07/04 09:56:48;;;;;;;5.22;2.80;;;29.50;94.20;;;;;;4960158;28;20655;-73
2022/07/04 09:59:16;;;;;;;5.47;3.10;;;29.30;94.90;;;;;;4960374;28;20639;-74
2022/07/04 10:01:43;;;;;;;4.28;2.45;;;29.60;95.30;;;;;;4960098;28;20201;-73
2022/07/04 10:04:12;;;;;;;5.10;2.70;;;30.10;95.10;;;;;;4977238;28;20706;-74
2022/07/04 10:06:42;;;;;;;6.72;2.55;;;30.50;92.10;;;;;;4959990;28;20709;-76
2022/07/04 10:09:17;;;;;;;3.13;2.53;;;31.10;92.00;;;;;;4959964;28;20253;-71
2022/07/04 10:11:47;;;;;;;3.78;2.58;;;31.30;91.20;;;;;;4943712;28;20311;-75
2022/07/04 10:14:15;;;;;;;5.18;2.80;;;30.70;88.70;;;;;;4956772;29;20222;-75
2022/07/04 10:16:42;;;;;;;4.70;2.25;;;31.10;90.30;;;;;;4957086;29;20731;-74
2022/07/04 10:19:12;;;;;;;2.88;2.63;;;31.10;84.30;;;;;;4956811;28;20640;-74
2022/07/04 10:21:39;;;;;;;4.32;2.70;;;30.70;85.10;;;;;;4956415;28;20253;-74
2022/07/04 10:24:07;;;;;;;3.50;2.40;;;30.70;88.00;;;;;;4956584;29;20194;-75
2022/07/04 10:26:34;;;;;;;3.58;2.50;;;30.80;85.80;;;;;;4956838;29;20779;-79
2022/07/04 10:29:01;;;;;;;4.47;2.50;;;30.70;84.50;;;;;;4956471;29;20199;-73
2022/07/04 10:31:31;;;;;;;3.10;2.45;;;30.90;83.70;;;;;;4956343;29;20652;-78
2022/07/04 10:33:59;;;;;;;2.85;2.33;;;31.30;87.80;;;;;;4956390;29;20293;-73
2022/07/04 10:36:30;;;;;;;2.60;2.22;;;31.40;81.30;;;;;;4956627;28;20703;-74
2022/07/04 10:39:05;;;;;;;3.70;2.80;;;30.80;83.20;;;;;;4956254;29;20225;-74
2022/07/04 10:41:32;;;;;;;4.20;2.53;;;30.40;80.50;;;;;;4956073;29;20202;-74
2022/07/04 10:44:14;;;;;;;4.78;2.60;;;30.80;84.40;;;;;;4956457;28;20195;-73
2022/07/04 10:46:47;;;;;;;3.95;2.42;;;31.30;81.10;;;;;;4956265;29;20218;-74
2022/07/04 10:49:14;;;;;;;3.45;2.40;;;31.20;81.80;;;;;;4956024;28;20249;-73
2022/07/04 10:52:10;;;;;;;3.90;2.50;;;31.40;80.10;;;;;;4955493;28;20238;-73
2022/07/04 10:54:41;;;;;;;5.47;2.70;;;31.70;78.90;;;;;;4956379;28;20653;-75
2022/07/04 10:57:11;;;;;;;4.47;2.88;;;31.30;78.70;;;;;;4956219;29;20234;-73
2022/07/04 10:59:40;;;;;;;4.68;2.60;;;31.30;77.80;;;;;;4957210;28;20201;-77
2022/07/04 11:02:07;;;;;;;3.13;2.38;;;31.60;81.10;;;;;;4955949;29;20198;-74
2022/07/04 11:04:52;;;;;;;3.00;2.45;;;32.30;80.60;;;;;;4957012;29;20241;-73
2022/07/04 11:07:23;;;;;;;5.97;2.80;;;32.60;73.30;;;;;;4955640;29;20302;-73
2022/07/04 11:10:12;;;;;;;2.97;2.47;;;31.90;76.10;;;;;;4955582;29;20202;-73
2022/07/04 11:13:06;;;;;;;3.97;2.55;;;32.20;78.80;;;;;;4955588;29;20198;-79
2022/07/04 11:15:33;;;;;;;4.32;2.85;;;32.40;76.60;;;;;;4956300;29;20236;-74
2022/07/04 11:18:05;;;;;;;3.72;2.40;;;31.80;74.20;;;;;;4955691;29;20197;-71
2022/07/04 11:20:38;;;;;;;5.13;2.72;;;31.10;75.50;;;;;;4955773;29;20662;-71
2022/07/04 11:23:09;;;;;;;3.95;2.53;;;31.20;77.60;;;;;;4955300;29;20285;-74
2022/07/04 11:25:38;;;;;;;4.53;2.55;;;31.00;76.50;;;;;;4957312;29;20262;-73
2022/07/04 11:28:26;;;;;;;3.25;2.50;;;31.40;76.70;;;;;;4955491;29;20265;-73
2022/07/04 11:31:11;;;;;;;3.75;2.50;;;32.00;78.50;;;;;;4956725;28;20182;-73
2022/07/04 11:33:41;;;;;;;3.97;2.38;;;32.40;75.20;;;;;;4955398;29;20198;-73
2022/07/04 11:36:18;;;;;;;3.65;2.50;;;32.60;74.90;;;;;;4955509;29;20658;-73
2022/07/04 11:38:53;;;;;;;3.38;2.35;;;32.90;76.20;;;;;;4956359;28;20616;-76
2022/07/04 11:47:39;;;;;;;2.63;2.38;;;32.10;73.40;;;;;;4956136;28;20241;-75
2022/07/04 11:50:11;;;;;;;2.85;2.47;;;32.10;72.70;;;;;;4955047;29;20706;-72
2022/07/04 11:52:40;;;;;;;2.40;2.22;;;32.00;73.20;;;;;;4954696;29;20265;-74
2022/07/04 11:55:27;;;;;;;3.00;2.50;;;31.70;74.90;;;;;;4954953;29;20197;-75
2022/07/04 11:57:55;;;;;;;5.07;3.28;;;31.80;76.70;;;;;;4954980;29;20198;-75
2022/07/04 12:00:27;;;;;;;3.17;2.88;;;31.80;77.60;;;;;;4955283;29;20670;-73
2022/07/04 12:02:59;;;;;;;4.13;2.67;;;31.70;77.20;;;;;;4954974;28;20217;-75
2022/07/04 12:05:27;;;;;;;3.97;3.13;;;31.40;76.80;;;;;;4954085;29;20210;-74
2022/07/04 12:07:54;;;;;;;3.67;3.10;;;31.20;75.90;;;;;;4954703;29;20252;-75
2022/07/04 12:10:41;;;;;;;2.70;2.50;;;30.80;76.50;;;;;;4954407;29;20194;-73
2022/07/04 12:13:15;;;;;;;3.85;2.63;;;31.40;76.10;;;;;;4957379;28;20225;-74
2022/07/04 12:15:44;;;;;;;2.53;2.20;;;31.70;74.20;;;;;;4957678;28;20197;-75
2022/07/04 12:18:28;;;;;;;4.30;2.83;;;31.50;73.30;;;;;;4957585;28;20655;-74
2022/07/04 12:21:15;;;;;;;4.07;2.47;;;31.60;76.60;;;;;;4941752;28;20244;-75
2022/07/04 12:23:53;;;;;;;5.68;3.35;;;32.10;75.90;;;;;;4957336;28;20288;-77
2022/07/04 12:26:49;;;;;;;4.60;3.20;;;32.60;74.30;;;;;;4957223;28;20683;-74
2022/07/04 12:29:24;;;;;;;3.00;2.70;;;32.80;74.20;;;;;;4974981;28;20240;-78
2022/07/04 12:31:58;;;;;;;2.38;2.15;;;32.80;71.10;;;;;;4974706;28;20198;-74
2022/07/04 12:34:25;;;;;;;5.10;2.63;;;32.00;68.90;;;;;;4974845;28;20225;-74
2022/07/04 12:36:54;;;;;;;2.55;2.30;;;32.10;72.10;;;;;;4957430;28;20292;-75
2022/07/04 12:39:37;;;;;;;3.92;2.33;;;32.40;72.30;;;;;;4957375;28;20208;-77
2022/07/04 12:42:08;;;;;;;3.60;2.60;;;32.40;68.30;;;;;;4957518;28;20202;-76
2022/07/04 12:44:37;;;;;;;3.05;2.50;;;32.30;69.80;;;;;;4974612;28;20636;-75
2022/07/04 12:47:04;;;;;;;4.07;2.50;;;32.10;73.10;;;;;;4973937;28;20580;-77
2022/07/04 12:49:45;;;;;;;7.90;2.70;;;31.70;72.90;;;;;;4957489;28;20273;-77
2022/07/04 12:52:15;;;;;;;3.55;2.45;;;31.60;72.70;;;;;;4956943;28;20213;-75
2022/07/04 12:54:45;;;;;;;7.22;2.97;;;31.40;71.90;;;;;;4957065;28;20225;-74
2022/07/04 12:57:15;;;;;;;5.97;2.50;;;31.30;73.90;;;;;;4956891;28;20201;-76
2022/07/04 12:59:42;;;;;;;4.78;2.58;;;30.70;72.00;;;;;;4956931;28;20232;-74
2022/07/04 13:02:11;;;;;;;7.93;2.58;;;30.80;73.20;;;;;;4956804;28;20665;-74
2022/07/04 13:04:38;;;;;;;6.68;2.60;;;30.90;73.80;;;;;;4957028;28;20587;-73
2022/07/04 13:07:17;;;;;;;4.47;3.25;;;30.80;73.50;;;;;;4974160;28;20733;-77
2022/07/04 13:09:46;;;;;;;9.38;2.85;;;30.80;71.30;;;;;;4956829;28;20256;-79
2022/07/04 13:12:25;;;;;;;2.40;2.20;;;30.50;71.30;;;;;;4956806;28;20197;-76
2022/07/04 13:14:55;;;;;;;3.92;2.53;;;30.70;71.70;;;;;;4957733;28;20243;-75